Time;durP1;ratioP1;P1;durP2;ratioP2;P2;SDS_P1;SDS_P2;PMS_P1;PMS_P2;Temp;Humidity;BMP_temperature;BMP_pressure;BME280_temperature;BME280_humidity;BME280_pressure;Samples;Min_cycle;Max_cycle;Signal;HPM_P1;HPM_P2
2022/05/11 00:01:26;;;;;;;;;7.00;6.25;;;;;19.64;52.10;100888.47;5002487;28;45451;-75
2022/05/11 00:03:55;;;;;;;;;6.00;5.50;;;;;19.74;51.92;100902.88;5003035;28;45535;-75
2022/05/11 00:06:20;;;;;;;;;7.00;7.00;;;;;19.79;51.89;100908.72;5006818;28;45517;-76
2022/05/11 00:08:45;;;;;;;;;5.25;5.25;;;;;19.73;51.76;100894.91;5004650;28;45625;-75
2022/05/11 00:11:11;;;;;;;;;5.00;5.00;;;;;19.64;52.45;100909.25;5005900;28;45610;-74
2022/05/11 00:13:36;;;;;;;;;5.00;5.00;;;;;19.52;52.59;100895.84;5005882;28;45488;-75
2022/05/11 00:16:02;;;;;;;;;5.75;5.75;;;;;19.53;53.07;100902.09;5004292;28;46277;-75
2022/05/11 00:18:27;;;;;;;;;8.00;8.00;;;;;19.31;52.98;100879.78;5008120;28;45408;-75
2022/05/11 00:20:53;;;;;;;;;7.75;6.25;;;;;19.42;53.05;100900.41;5013818;28;45491;-75
2022/05/11 00:23:18;;;;;;;;;8.00;7.00;;;;;19.33;53.04;100885.88;5012332;28;45497;-75
2022/05/11 00:25:45;;;;;;;;;7.00;7.00;;;;;19.44;53.12;100895.72;5013076;28;47122;-76
2022/05/11 00:28:10;;;;;;;;;5.50;5.50;;;;;19.48;53.08;100888.16;5010805;28;45548;-76
2022/05/11 00:30:36;;;;;;;;;5.75;5.75;;;;;19.43;53.27;100895.84;5012975;28;45387;-76
2022/05/11 00:33:02;;;;;;;;;6.00;6.00;;;;;19.38;53.77;100871.97;5013242;28;45361;-75
2022/05/11 00:35:29;;;;;;;;;7.00;5.75;;;;;19.40;53.54;100880.78;5013276;28;46099;-75
2022/05/11 00:37:55;;;;;;;;;8.00;6.50;;;;;19.37;53.44;100875.66;5014145;28;45611;-76
2022/05/11 00:40:22;;;;;;;;;7.50;6.00;;;;;19.26;53.66;100857.72;5013419;28;45503;-75
2022/05/11 00:42:48;;;;;;;;;3.25;3.25;;;;;19.33;53.75;100866.97;5012782;28;45353;-76
2022/05/11 00:45:13;;;;;;;;;7.00;6.00;;;;;19.30;53.88;100877.22;5013818;28;45423;-76
2022/05/11 00:47:46;;;;;;;;;6.25;6.25;;;;;19.23;54.00;100863.41;5013065;28;45574;-76
2022/05/11 00:50:21;;;;;;;;;6.50;5.00;;;;;19.18;54.37;100859.44;5013206;28;45304;-76
2022/05/11 00:52:55;;;;;;;;;8.50;7.00;;;;;19.15;54.45;100856.03;4996872;28;45736;-75
2022/05/11 00:55:35;;;;;;;;;6.50;5.00;;;;;19.10;54.62;100868.22;5013093;28;45387;-75
2022/05/11 00:58:09;;;;;;;;;7.50;7.50;;;;;19.06;54.88;100856.84;5012607;28;45915;-76
2022/05/11 01:00:36;;;;;;;;;7.75;6.75;;;;;18.90;55.11;100856.50;5013466;28;45381;-76
2022/05/11 01:03:15;;;;;;;;;8.50;8.50;;;;;18.93;55.03;100848.16;5011203;28;45630;-75
2022/05/11 01:05:42;;;;;;;;;5.50;5.50;;;;;18.94;55.11;100853.41;5013244;28;45527;-75
2022/05/11 01:08:07;;;;;;;;;9.25;7.50;;;;;18.83;54.98;100825.69;5013351;28;45527;-76
2022/05/11 01:10:33;;;;;;;;;9.25;8.00;;;;;18.85;55.55;100837.19;5013010;28;45578;-75
2022/05/11 01:13:05;;;;;;;;;7.75;6.00;;;;;18.86;55.27;100834.38;5012968;28;45521;-75
2022/05/11 01:15:32;;;;;;;;;9.00;7.00;;;;;18.80;55.47;100832.22;5012405;28;45424;-76
2022/05/11 01:18:00;;;;;;;;;6.50;6.50;;;;;18.82;55.42;100826.69;5012843;28;45469;-76
2022/05/11 01:20:29;;;;;;;;;7.00;7.00;;;;;18.73;55.31;100810.28;5012813;28;45365;-76
2022/05/11 01:23:33;;;;;;;;;6.75;6.75;;;;;18.73;55.62;100822.94;5013601;28;45526;-76
2022/05/11 01:26:03;;;;;;;;;7.50;6.00;;;;;18.68;55.52;100803.59;5001799;28;45500;-76
2022/05/11 01:28:29;;;;;;;;;9.25;6.00;;;;;18.76;55.63;100827.19;5012296;28;45555;-76
2022/05/11 01:31:06;;;;;;;;;12.00;10.00;;;;;18.62;55.99;100821.19;5009163;28;45557;-76
2022/05/11 01:33:34;;;;;;;;;11.75;8.50;;;;;18.56;56.31;100819.03;4995608;28;45931;-76
2022/05/11 01:36:22;;;;;;;;;12.25;10.75;;;;;18.60;55.93;100820.47;5012205;28;45591;-75
2022/05/11 01:38:51;;;;;;;;;11.25;10.75;;;;;18.35;55.98;100773.28;5008773;28;45527;-76
2022/05/11 01:41:22;;;;;;;;;11.25;10.75;;;;;18.52;56.12;100793.34;5016477;28;45403;-76
2022/05/11 01:43:49;;;;;;;;;9.75;9.50;;;;;18.65;55.90;100820.91;5016138;28;45555;-76
2022/05/11 01:46:16;;;;;;;;;8.50;8.50;;;;;18.62;56.08;100817.66;5012791;28;46187;-76
2022/05/11 01:48:42;;;;;;;;;11.00;11.00;;;;;18.43;56.10;100786.94;5015668;28;45426;-75
2022/05/11 01:51:08;;;;;;;;;11.25;9.00;;;;;18.53;55.97;100814.75;5016059;28;45651;-76
2022/05/11 01:53:33;;;;;;;;;9.50;8.75;;;;;18.44;56.35;100801.25;5015839;28;45590;-76
2022/05/11 01:55:59;;;;;;;;;10.75;8.25;;;;;18.46;56.45;100820.84;5003786;28;46493;-77
2022/05/11 01:58:25;;;;;;;;;12.00;9.25;;;;;18.44;56.30;100817.41;5015592;28;45997;-75
2022/05/11 02:00:51;;;;;;;;;10.75;9.75;;;;;18.37;56.43;100800.09;4998816;28;45734;-75
2022/05/11 02:03:18;;;;;;;;;8.50;8.50;;;;;18.47;56.51;100819.84;5015436;28;45570;-76
2022/05/11 02:08:29;;;;;;;;;14.75;9.25;;;;;18.23;56.48;100787.81;5015303;28;45577;-76
2022/05/11 02:10:55;;;;;;;;;7.25;7.25;;;;;18.29;57.06;100807.00;5016627;28;45488;-76
2022/05/11 02:13:21;;;;;;;;;8.25;8.25;;;;;18.38;56.71;100812.59;5015375;28;45498;-76
2022/05/11 02:15:48;;;;;;;;;10.00;8.00;;;;;18.26;56.73;100798.34;5015231;28;46165;-76
2022/05/11 02:18:14;;;;;;;;;11.00;10.50;;;;;18.20;56.72;100790.78;5015704;28;45605;-75
2022/05/11 02:20:39;;;;;;;;;8.75;8.75;;;;;18.32;57.11;100819.34;5015156;28;45405;-76
2022/05/11 02:23:04;;;;;;;;;9.00;7.00;;;;;18.15;57.10;100787.66;5016454;28;45467;-77
2022/05/11 02:25:30;;;;;;;;;7.00;7.00;;;;;18.24;57.05;100797.63;5014799;28;45978;-78
2022/05/11 02:27:55;;;;;;;;;6.25;6.25;;;;;18.01;57.10;100768.13;5015170;28;45500;-78
2022/05/11 02:30:28;;;;;;;;;9.00;9.00;;;;;18.29;57.16;100812.38;5016052;28;45483;-77
2022/05/11 02:32:54;;;;;;;;;9.00;7.50;;;;;18.31;57.17;100814.97;5013834;28;45610;-76
2022/05/11 02:35:21;;;;;;;;;9.00;8.50;;;;;18.28;57.29;100807.16;5015482;28;45831;-77
2022/05/11 02:37:55;;;;;;;;;13.25;10.25;;;;;18.25;57.26;100802.84;5015550;28;45492;-77
2022/05/11 02:40:47;;;;;;;;;7.25;7.25;;;;;18.24;57.24;100794.94;5015135;28;45510;-77
2022/05/11 02:43:14;;;;;;;;;8.75;7.00;;;;;18.22;57.06;100803.13;5013078;28;45436;-76
2022/05/11 02:45:40;;;;;;;;;8.25;7.00;;;;;18.10;57.47;100783.50;5014485;28;45819;-76
2022/05/11 02:48:07;;;;;;;;;8.25;8.25;;;;;17.89;57.54;100742.28;5013696;28;45488;-76
2022/05/11 02:50:47;;;;;;;;;10.50;9.50;;;;;17.90;57.35;100753.91;5015087;28;45513;-76
2022/05/11 02:53:14;;;;;;;;;11.75;10.25;;;;;18.08;57.79;100781.94;5015010;28;45397;-76
2022/05/11 02:55:43;;;;;;;;;9.25;7.25;;;;;18.11;57.69;100789.75;5015053;28;46546;-76
2022/05/11 02:58:09;;;;;;;;;12.25;8.00;;;;;17.95;57.68;100767.84;5014015;28;45480;-76
2022/05/11 03:00:36;;;;;;;;;6.50;6.25;;;;;18.01;57.85;100784.28;5014760;28;45565;-77
2022/05/11 03:03:04;;;;;;;;;9.75;8.50;;;;;17.75;58.16;100754.22;5014831;28;45466;-77
2022/05/11 03:05:30;;;;;;;;;6.00;6.00;;;;;17.96;58.03;100785.69;5014423;28;47362;-77
2022/05/11 03:07:55;;;;;;;;;11.25;8.00;;;;;17.92;58.10;100781.56;5015633;28;45813;-77
2022/05/11 03:10:21;;;;;;;;;10.25;8.25;;;;;17.88;58.29;100783.66;5016812;28;45332;-77
2022/05/11 03:12:46;;;;;;;;;8.25;7.00;;;;;17.85;58.50;100790.19;5014184;28;47972;-77
2022/05/11 03:15:12;;;;;;;;;7.25;6.25;;;;;17.81;58.40;100791.41;5014556;28;46285;-77
2022/05/11 03:17:37;;;;;;;;;8.75;8.00;;;;;17.64;58.44;100765.91;5014720;28;46344;-76
2022/05/11 03:20:05;;;;;;;;;8.50;7.25;;;;;17.62;58.79;100773.25;5016372;28;45354;-77
2022/05/11 03:22:30;;;;;;;;;9.00;7.75;;;;;17.70;58.86;100793.28;5014429;28;45518;-77
2022/05/11 03:24:56;;;;;;;;;7.25;7.00;;;;;17.66;58.85;100788.16;5014428;28;45906;-76
2022/05/11 03:27:21;;;;;;;;;10.75;9.25;;;;;17.62;58.92;100789.41;5008340;28;45520;-76
2022/05/11 03:29:47;;;;;;;;;7.00;7.00;;;;;17.50;59.42;100776.16;5014485;28;45558;-76
2022/05/11 03:34:58;;;;;;;;;7.25;7.25;;;;;17.52;59.26;100791.19;5014921;28;45473;-76
2022/05/11 03:37:23;;;;;;;;;9.25;6.75;;;;;17.39;59.33;100769.84;5014046;28;45529;-76
2022/05/11 03:39:49;;;;;;;;;10.00;10.00;;;;;17.45;59.46;100788.16;5014270;28;45310;-76
2022/05/11 03:42:18;;;;;;;;;9.50;9.50;;;;;17.42;59.78;100782.19;5014169;28;45612;-76
2022/05/11 03:44:43;;;;;;;;;9.25;9.25;;;;;17.40;59.89;100776.06;5013999;28;46974;-76
2022/05/11 03:47:09;;;;;;;;;9.00;8.00;;;;;17.26;59.87;100761.06;5016233;28;45520;-76
2022/05/11 03:49:34;;;;;;;;;8.50;8.50;;;;;17.37;59.95;100781.72;5015439;28;45579;-76
2022/05/11 03:52:01;;;;;;;;;9.75;8.75;;;;;17.35;60.08;100776.44;5015328;28;45441;-76
2022/05/11 03:54:26;;;;;;;;;11.00;11.00;;;;;17.24;60.11;100765.72;5015620;28;45491;-76
2022/05/11 03:56:51;;;;;;;;;9.00;6.75;;;;;17.30;60.45;100776.00;5015370;28;45553;-76
2022/05/11 03:59:17;;;;;;;;;9.50;8.00;;;;;17.28;60.41;100780.66;5015892;28;45388;-76
2022/05/11 04:01:42;;;;;;;;;10.00;10.00;;;;;17.18;60.32;100772.50;5014721;28;48125;-76
2022/05/11 04:04:08;;;;;;;;;12.50;10.00;;;;;17.08;60.78;100759.91;5014816;28;45624;-76
2022/05/11 04:06:34;;;;;;;;;9.25;9.00;;;;;17.11;60.76;100767.75;5015473;28;45429;-77
2022/05/11 04:08:59;;;;;;;;;10.50;10.50;;;;;17.09;60.69;100772.41;5015325;28;45287;-76
2022/05/11 04:11:26;;;;;;;;;12.75;11.50;;;;;17.15;61.03;100794.28;5015373;28;45305;-76
2022/05/11 04:13:51;;;;;;;;;9.00;9.00;;;;;16.91;60.84;100761.31;5012319;28;47479;-76
2022/05/11 04:16:18;;;;;;;;;9.00;9.00;;;;;17.07;61.35;100787.81;5014928;28;45496;-75
2022/05/11 04:18:44;;;;;;;;;11.25;11.25;;;;;17.04;61.48;100797.84;5015084;28;45403;-75
2022/05/11 04:21:11;;;;;;;;;11.50;9.50;;;;;16.92;61.60;100774.66;5014722;28;49661;-75
2022/05/11 04:23:40;;;;;;;;;9.75;9.75;;;;;16.90;61.62;100783.81;5015038;28;46141;-76
2022/05/11 04:26:06;;;;;;;;;11.50;11.50;;;;;16.81;62.11;100777.34;4996840;28;46111;-75
2022/05/11 04:28:32;;;;;;;;;13.00;13.00;;;;;16.83;61.94;100783.47;5013956;28;45421;-75
2022/05/11 04:31:05;;;;;;;;;10.50;10.00;;;;;16.85;61.91;100775.28;5012838;28;45605;-75
2022/05/11 04:33:31;;;;;;;;;15.50;13.25;;;;;16.97;61.78;100787.72;5014063;28;45850;-75
2022/05/11 04:35:56;;;;;;;;;12.00;10.50;;;;;17.04;61.66;100803.22;5014225;28;45583;-76
2022/05/11 04:38:22;;;;;;;;;14.50;14.25;;;;;16.93;61.53;100780.88;5002781;28;45559;-76
2022/05/11 04:40:47;;;;;;;;;10.50;10.50;;;;;17.07;61.86;100799.41;5014298;28;45382;-76
2022/05/11 04:43:13;;;;;;;;;10.50;10.00;;;;;17.03;61.89;100795.28;5013812;28;45949;-77
2022/05/11 04:45:40;;;;;;;;;13.25;12.25;;;;;17.07;61.71;100802.09;5013953;28;45376;-77
2022/05/11 04:48:05;;;;;;;;;10.00;10.00;;;;;17.02;61.60;100794.41;5014015;28;45350;-77
2022/05/11 04:50:31;;;;;;;;;14.75;11.25;;;;;16.89;61.80;100774.91;5012786;28;45370;-78
2022/05/11 04:52:56;;;;;;;;;10.50;10.50;;;;;16.81;61.92;100753.16;5014458;28;45331;-79
2022/05/11 04:55:21;;;;;;;;;10.75;9.75;;;;;17.01;62.04;100786.50;5013706;28;45250;-79
2022/05/11 04:57:48;;;;;;;;;11.00;11.00;;;;;16.97;62.14;100788.56;5014099;28;45358;-79
2022/05/11 05:00:14;;;;;;;;;10.50;10.50;;;;;16.96;62.13;100784.19;5013900;28;45676;-79
2022/05/11 05:02:40;;;;;;;;;12.00;11.00;;;;;17.00;62.29;100793.72;5013405;28;46220;-80
2022/05/11 05:05:08;;;;;;;;;13.25;10.75;;;;;16.81;62.67;100764.78;5014203;28;45605;-80
2022/05/11 05:07:34;;;;;;;;;12.25;11.50;;;;;16.96;62.80;100789.56;5014117;28;45492;-80
2022/05/11 05:10:01;;;;;;;;;13.00;11.75;;;;;17.01;62.62;100787.34;5013748;28;45470;-80
2022/05/11 05:12:26;;;;;;;;;12.50;12.00;;;;;16.73;62.77;100740.31;4995734;28;48555;-80
2022/05/11 05:14:52;;;;;;;;;11.50;11.00;;;;;16.98;63.22;100789.41;5017003;28;45601;-80
2022/05/11 05:17:17;;;;;;;;;12.75;12.50;;;;;16.78;63.25;100761.44;5017456;28;45464;-79
2022/05/11 05:19:44;;;;;;;;;15.75;15.00;;;;;16.92;63.78;100777.34;5017795;28;45351;-79
2022/05/11 05:22:10;;;;;;;;;16.50;16.50;;;;;17.03;63.76;100789.91;5016828;28;47487;-80
2022/05/11 05:24:35;;;;;;;;;22.50;20.50;;;;;17.00;63.84;100774.88;5017127;28;45581;-80
2022/05/11 05:27:02;;;;;;;;;15.75;15.75;;;;;17.13;63.80;100788.16;5018041;28;45431;-80
2022/05/11 05:32:14;;;;;;;;;21.00;19.75;;;;;17.18;63.64;100791.31;5018025;28;45818;-80
2022/05/11 05:34:39;;;;;;;;;20.50;19.25;;;;;17.21;63.81;100790.22;4999653;28;45535;-80
2022/05/11 05:37:05;;;;;;;;;25.25;22.25;;;;;17.25;63.46;100795.22;5017696;28;45274;-80
2022/05/11 05:39:30;;;;;;;;;24.75;23.25;;;;;17.28;63.75;100782.47;5017499;28;45475;-78
2022/05/11 05:41:55;;;;;;;;;20.75;20.75;;;;;17.23;63.74;100780.19;5017492;28;46112;-79
2022/05/11 05:44:22;;;;;;;;;24.50;23.00;;;;;17.09;63.70;100757.09;5017723;28;45350;-79
2022/05/11 05:46:47;;;;;;;;;26.00;21.25;;;;;17.22;63.48;100784.72;5018108;28;45345;-79
2022/05/11 05:49:13;;;;;;;;;22.75;22.75;;;;;17.05;63.31;100747.59;4999504;28;45420;-79
2022/05/11 05:51:39;;;;;;;;;24.00;23.50;;;;;17.25;63.53;100788.97;5017163;28;45295;-79
2022/05/11 05:54:05;;;;;;;;;24.50;23.00;;;;;17.35;63.42;100797.97;5016976;28;46027;-79
2022/05/11 05:56:32;;;;;;;;;22.00;20.50;;;;;17.17;63.03;100762.72;5017570;28;45685;-81
2022/05/11 05:59:01;;;;;;;;;21.50;19.75;;;;;17.29;63.35;100776.09;5017880;28;45472;-81
2022/05/11 06:01:27;;;;;;;;;19.75;19.75;;;;;17.51;62.92;100796.69;5015545;28;46324;-81
2022/05/11 06:03:53;;;;;;;;;19.75;19.75;;;;;17.55;62.79;100795.44;5010876;28;45528;-85
2022/05/11 06:06:19;;;;;;;;;22.00;22.00;;;;;17.42;62.96;100782.19;5006817;28;45432;-82
2022/05/11 06:08:45;;;;;;;;;21.75;20.00;;;;;17.50;63.14;100782.38;4999050;28;45840;-83
2022/05/11 06:11:10;;;;;;;;;21.00;19.50;;;;;17.54;62.73;100783.84;5013955;28;45456;-82
2022/05/11 06:13:37;;;;;;;;;21.75;21.75;;;;;17.76;62.45;100808.94;4989874;28;45516;-82
2022/05/11 06:16:09;;;;;;;;;26.00;21.00;;;;;17.78;62.00;100798.88;5007689;28;45589;-82
2022/05/11 06:18:35;;;;;;;;;27.75;21.75;;;;;17.80;62.22;100800.50;5015919;28;45298;-81
2022/05/11 06:21:01;;;;;;;;;22.50;19.50;;;;;17.92;60.84;100812.06;4997778;28;47233;-82
2022/05/11 06:23:26;;;;;;;;;16.50;14.75;;;;;17.90;60.47;100795.16;4997941;28;46097;-82
2022/05/11 06:25:52;;;;;;;;;19.25;19.25;;;;;18.04;60.14;100802.91;5013943;28;45377;-82
2022/05/11 06:28:21;;;;;;;;;20.75;17.50;;;;;18.11;58.77;100808.59;5010312;28;45785;-82
2022/05/11 06:30:47;;;;;;;;;16.75;15.50;;;;;18.11;59.29;100789.75;5011425;28;46801;-81
2022/05/11 06:33:12;;;;;;;;;15.25;15.25;;;;;18.11;58.61;100773.56;5015181;28;45834;-82
2022/05/11 06:35:38;;;;;;;;;19.75;17.75;;;;;17.86;58.51;100737.16;5015622;28;45488;-82
2022/05/11 06:38:06;;;;;;;;;21.00;19.00;;;;;18.15;58.66;100763.41;5015194;28;45439;-80
2022/05/11 06:40:32;;;;;;;;;17.75;16.00;;;;;18.40;58.00;100794.41;5009689;28;46491;-80
2022/05/11 06:42:57;;;;;;;;;14.25;13.50;;;;;18.36;57.81;100776.81;5014036;28;45482;-80
2022/05/11 06:45:23;;;;;;;;;16.75;15.25;;;;;18.50;57.21;100789.94;5011997;28;45854;-81
2022/05/11 06:47:49;;;;;;;;;11.50;11.50;;;;;18.48;55.95;100790.06;5003389;28;45588;-81
2022/05/11 06:50:16;;;;;;;;;14.75;11.75;;;;;18.45;56.16;100790.34;5012699;28;46569;-80
2022/05/11 06:52:41;;;;;;;;;12.25;12.00;;;;;18.56;54.43;100794.75;5013032;28;46328;-81
2022/05/11 07:00:35;;;;;;;;;10.25;10.25;;;;;18.68;53.77;100793.66;5005883;28;45458;-80
2022/05/11 07:03:01;;;;;;;;;13.50;11.25;;;;;18.60;53.62;100774.63;4993019;28;45548;-86
2022/05/11 07:05:29;;;;;;;;;11.75;11.25;;;;;18.82;53.50;100797.88;5009162;28;45763;-80
2022/05/11 07:07:54;;;;;;;;;10.50;10.25;;;;;18.85;53.27;100794.03;5015079;28;45344;-80
2022/05/11 07:10:20;;;;;;;;;15.25;12.50;;;;;18.91;53.30;100788.09;5014197;28;46343;-79
2022/05/11 07:12:47;;;;;;;;;11.75;10.00;;;;;18.77;52.67;100748.03;5014642;28;45456;-80
2022/05/11 07:15:23;;;;;;;;;10.00;8.50;;;;;18.94;52.22;100777.88;4992808;28;45417;-79
2022/05/11 07:17:51;;;;;;;;;11.00;11.00;;;;;19.08;51.88;100783.88;5002325;28;45451;-79
2022/05/11 07:20:21;;;;;;;;;9.75;8.50;;;;;19.09;50.79;100789.09;5015304;28;46034;-79
2022/05/11 07:22:46;;;;;;;;;11.00;10.25;;;;;19.00;50.53;100764.81;5010348;28;45534;-79
2022/05/11 07:25:16;;;;;;;;;8.75;7.50;;;;;19.18;50.56;100784.72;4995055;28;45507;-80
2022/05/11 07:27:44;;;;;;;;;9.75;8.00;;;;;19.11;50.31;100770.94;5012035;28;45234;-79
2022/05/11 07:30:13;;;;;;;;;7.50;6.00;;;;;19.34;49.63;100793.13;5014198;28;46266;-79
2022/05/11 07:32:38;;;;;;;;;5.75;5.00;;;;;19.29;47.00;100771.09;5010414;28;45530;-79
2022/05/11 07:35:04;;;;;;;;;6.75;6.75;;;;;19.43;48.75;100783.28;5014770;28;45469;-77
2022/05/11 07:37:30;;;;;;;;;6.00;5.75;;;;;19.47;48.21;100783.88;5008884;28;45479;-77
2022/05/11 07:39:56;;;;;;;;;7.75;6.50;;;;;19.49;47.22;100774.63;5012185;28;53646;-77
2022/05/11 07:42:22;;;;;;;;;6.00;4.25;;;;;19.54;41.72;100776.91;5013249;28;45827;-77
2022/05/11 07:44:48;;;;;;;;;4.00;4.00;;;;;19.41;41.95;100761.00;5014527;28;45482;-77
2022/05/11 07:47:13;;;;;;;;;2.00;2.00;;;;;19.64;42.64;100780.44;5012517;28;45809;-77
2022/05/11 07:49:40;;;;;;;;;6.00;6.00;;;;;19.61;42.44;100759.13;4996468;28;47234;-77
2022/05/11 07:52:06;;;;;;;;;4.25;4.25;;;;;19.77;42.07;100790.97;5011320;28;45457;-77
2022/05/11 07:54:32;;;;;;;;;3.00;3.00;;;;;19.83;42.40;100793.09;5011163;28;45344;-77
2022/05/11 07:59:57;;;;;;;;;4.25;4.00;;;;;19.89;41.94;100797.06;5011598;28;45867;-77
2022/05/11 08:02:27;;;;;;;;;2.25;2.25;;;;;19.83;41.93;100792.25;5007949;28;45574;-77
2022/05/11 08:04:58;;;;;;;;;4.00;4.00;;;;;19.92;42.75;100792.25;5009851;28;45855;-77
2022/05/11 08:07:34;;;;;;;;;3.00;3.00;;;;;19.93;41.86;100793.94;5013212;28;45463;-77
2022/05/11 08:09:59;;;;;;;;;4.00;4.00;;;;;19.91;41.50;100797.78;5012787;28;45609;-76
2022/05/11 08:12:26;;;;;;;;;5.25;5.00;;;;;19.94;42.04;100783.97;5013595;28;45935;-77
2022/05/11 08:14:52;;;;;;;;;5.75;5.75;;;;;19.98;41.88;100783.53;5014068;28;45484;-77
2022/05/11 08:17:30;;;;;;;;;4.50;3.50;;;;;20.08;41.85;100794.31;5014685;28;45598;-77
2022/05/11 08:19:55;;;;;;;;;4.25;4.25;;;;;20.13;40.75;100788.47;5013474;28;45502;-77
2022/05/11 08:22:21;;;;;;;;;3.00;3.00;;;;;20.10;41.38;100780.66;5014399;28;45607;-77
2022/05/11 08:24:48;;;;;;;;;2.00;2.00;;;;;20.08;38.74;100783.50;5013623;28;45433;-78
2022/05/11 08:27:16;;;;;;;;;3.00;3.00;;;;;20.18;39.28;100787.06;5013074;28;45638;-77
2022/05/11 08:35:09;;;;;;;;;4.25;4.25;;;;;20.27;41.67;100781.75;5011463;28;45268;-77
2022/05/11 08:37:34;;;;;;;;;3.50;3.25;;;;;20.29;41.26;100779.75;5014102;28;45654;-77
2022/05/11 08:40:00;;;;;;;;;4.75;4.00;;;;;20.41;41.27;100783.97;5013368;28;46194;-78
2022/05/11 08:42:29;;;;;;;;;3.75;3.75;;;;;20.49;41.33;100783.22;5014172;28;45416;-77
2022/05/11 08:44:55;;;;;;;;;3.25;3.25;;;;;20.45;41.18;100776.41;5014600;28;45476;-77
2022/05/11 08:47:41;;;;;;;;;4.75;4.75;;;;;20.60;41.40;100793.88;5014357;28;45373;-78
2022/05/11 08:50:16;;;;;;;;;4.00;4.00;;;;;20.67;40.80;100796.84;5009080;28;47280;-78
2022/05/11 08:52:58;;;;;;;;;5.50;5.00;;;;;20.68;41.12;100793.97;5011066;28;45552;-77
2022/05/11 08:55:32;;;;;;;;;6.00;5.00;;;;;20.65;40.88;100775.34;5011521;28;45533;-77
2022/05/11 08:58:08;;;;;;;;;5.00;3.75;;;;;20.70;40.65;100780.28;5008497;28;45451;-76
2022/05/11 09:00:39;;;;;;;;;5.25;5.25;;;;;20.80;40.31;100792.75;5012433;28;47284;-77
2022/05/11 09:03:34;;;;;;;;;4.75;2.50;;;;;20.89;37.71;100788.28;5006271;28;45565;-79
2022/05/11 09:06:17;;;;;;;;;3.25;2.25;;;;;20.92;38.65;100781.72;5007530;28;45489;-80
2022/05/11 09:08:43;;;;;;;;;3.00;3.00;;;;;21.01;39.16;100792.50;5011611;28;45573;-80
2022/05/11 09:11:13;;;;;;;;;6.00;3.00;;;;;20.97;39.74;100769.47;5011622;28;45627;-79
2022/05/11 09:13:42;;;;;;;;;4.00;4.00;;;;;21.09;38.52;100789.00;5013689;28;45519;-79
2022/05/11 09:16:20;;;;;;;;;3.50;2.00;;;;;21.16;38.09;100781.13;5012334;28;45373;-80
2022/05/11 09:18:45;;;;;;;;;4.25;3.00;;;;;21.06;38.42;100771.22;5011305;28;45538;-80
2022/05/11 09:21:31;;;;;;;;;4.25;3.00;;;;;21.17;37.11;100778.28;5012723;28;45465;-79
2022/05/11 09:24:14;;;;;;;;;2.25;1.00;;;;;21.27;34.94;100791.75;5003395;28;45732;-80
2022/05/11 09:26:44;;;;;;;;;2.00;2.00;;;;;21.25;34.25;100778.34;5007824;28;45436;-80
2022/05/11 09:29:16;;;;;;;;;2.00;2.00;;;;;21.42;33.35;100794.78;5004616;28;45410;-79
2022/05/11 09:31:43;;;;;;;;;2.00;2.00;;;;;21.40;33.90;100789.50;5002136;28;46850;-79
2022/05/11 09:34:12;;;;;;;;;4.25;3.00;;;;;21.39;33.58;100782.41;5012379;28;45531;-79
2022/05/11 09:36:58;;;;;;;;;2.50;2.00;;;;;21.49;33.97;100798.56;5012713;28;45617;-80
2022/05/11 09:39:27;;;;;;;;;2.25;2.25;;;;;21.43;34.03;100786.53;5010584;28;45442;-79
2022/05/11 09:42:01;;;;;;;;;2.75;2.75;;;;;21.47;34.48;100762.66;5010395;28;45429;-79
2022/05/11 09:44:40;;;;;;;;;2.00;2.00;;;;;21.67;35.70;100780.44;5008097;28;45543;-80
2022/05/11 09:47:27;;;;;;;;;4.25;3.75;;;;;21.73;36.02;100768.13;5010265;28;45346;-80
2022/05/11 09:49:54;;;;;;;;;3.25;3.25;;;;;21.86;36.19;100779.41;5008263;28;45693;-80
2022/05/11 09:52:33;;;;;;;;;4.75;3.00;;;;;22.04;35.16;100787.47;5008027;28;45519;-79
2022/05/11 09:55:00;;;;;;;;;5.50;2.00;;;;;22.11;34.21;100788.53;5007475;28;45401;-79
2022/05/11 09:59:49;;;;;;;;;3.50;3.50;;;;;22.07;33.58;100762.75;5126764;27;45547;-82
2022/05/11 10:02:35;;;;;;;;;3.25;2.25;;;;;22.28;33.04;100786.81;5110874;27;45389;-83
2022/05/11 10:05:15;;;;;;;;;3.00;2.00;;;;;22.31;33.06;100764.78;5112421;27;45510;-83
2022/05/11 10:07:55;;;;;;;;;1.50;1.50;;;;;22.33;32.01;100779.03;5110326;27;45519;-84
2022/05/11 10:10:36;;;;;;;;;1.50;1.50;;;;;22.26;30.26;100758.16;5108553;27;45652;-84
2022/05/11 10:13:17;;;;;;;;;1.50;1.00;;;;;22.34;30.33;100766.31;5110117;27;45546;-83
2022/05/11 10:24:06;;;;;;;;;1.75;1.75;;;;;22.55;31.42;100776.75;5109366;27;45363;-85
2022/05/11 10:27:11;;;;;;;;;2.00;2.00;;;;;22.68;32.64;100758.16;5108303;27;45493;-85
2022/05/11 10:29:54;;;;;;;;;3.00;3.00;;;;;22.76;32.06;100771.75;5046051;28;45523;-84
2022/05/11 10:32:27;;;;;;;;;1.25;1.25;;;;;22.71;31.16;100768.69;5030438;28;47571;-82
2022/05/11 10:35:26;;;;;;;;;2.00;2.00;;;;;22.74;32.37;100760.19;5046787;28;45432;-83
2022/05/11 10:38:05;;;;;;;;;2.00;2.00;;;;;22.66;33.20;100743.06;5027265;28;45575;-84
2022/05/11 10:40:56;;;;;;;;;2.00;2.00;;;;;22.86;33.77;100771.59;5047330;28;45287;-85
2022/05/11 10:43:40;;;;;;;;;2.00;2.00;;;;;23.00;33.15;100767.44;5047386;28;45507;-85
2022/05/11 10:46:27;;;;;;;;;3.00;3.00;;;;;23.18;34.24;100765.41;5044980;28;45487;-85
2022/05/11 10:49:32;;;;;;;;;2.00;2.00;;;;;23.29;34.79;100761.53;5046793;28;45506;-81
2022/05/11 10:52:22;;;;;;;;;4.00;2.50;;;;;23.39;35.28;100748.63;5030393;28;45649;-86
2022/05/11 10:54:53;;;;;;;;;4.50;3.75;;;;;23.50;35.59;100761.03;5028753;28;46659;-85
2022/05/11 10:57:30;;;;;;;;;2.50;2.50;;;;;23.60;34.98;100747.28;5046826;28;45530;-84
2022/05/11 11:00:12;;;;;;;;;3.00;3.00;;;;;23.80;35.54;100753.22;5047305;28;45542;-85
2022/05/11 11:02:56;;;;;;;;;1.50;1.50;;;;;23.89;35.16;100738.59;5046133;28;45690;-84
2022/05/11 11:05:40;;;;;;;;;2.25;2.25;;;;;24.17;35.25;100752.66;5048539;27;46216;-88
2022/05/11 11:08:14;;;;;;;;;2.75;2.75;;;;;24.29;35.01;100741.34;5110970;27;45441;-86
2022/05/11 11:10:47;;;;;;;;;3.00;2.00;;;;;24.34;34.91;100745.28;5099070;27;45468;-84
2022/05/11 11:13:48;;;;;;;;;3.00;2.00;;;;;24.28;34.25;100731.50;5095528;27;45432;-81
2022/05/11 11:16:15;;;;;;;;;3.75;1.75;;;;;24.45;34.69;100739.41;5093242;27;46181;-86
2022/05/11 11:18:45;;;;;;;;;2.00;2.00;;;;;24.43;34.34;100741.47;5094959;27;45428;-82
2022/05/11 11:21:13;;;;;;;;;2.00;2.00;;;;;24.41;34.09;100720.91;5095617;27;45534;-83
2022/05/11 11:23:41;;;;;;;;;3.75;1.75;;;;;24.41;34.26;100732.66;5095339;27;45409;-82
2022/05/11 11:26:13;;;;;;;;;3.00;3.00;;;;;24.47;34.36;100731.13;5112529;27;46387;-83
2022/05/11 11:28:41;;;;;;;;;2.50;2.00;;;;;24.54;34.83;100721.22;5096363;27;45516;-83
2022/05/11 11:31:09;;;;;;;;;1.25;1.25;;;;;24.75;34.78;100736.94;5093661;27;45582;-84
2022/05/11 11:33:37;;;;;;;;;3.50;3.50;;;;;24.69;35.28;100721.31;5112067;27;45832;-82
2022/05/11 11:36:22;;;;;;;;;2.75;2.75;;;;;24.94;35.43;100729.31;5100682;27;46672;-86
2022/05/11 11:38:49;;;;;;;;;4.00;2.00;;;;;25.11;34.71;100725.47;5094546;27;45503;-84
2022/05/11 11:41:21;;;;;;;;;3.50;3.25;;;;;24.97;34.45;100688.97;5096569;27;45592;-86
2022/05/11 11:44:02;;;;;;;;;2.00;2.00;;;;;25.15;33.94;100705.00;5096461;27;45475;-85
2022/05/11 11:46:33;;;;;;;;;3.00;2.00;;;;;25.24;34.46;100723.00;5094438;27;46010;-84
2022/05/11 11:49:03;;;;;;;;;3.50;2.25;;;;;25.30;34.56;100705.06;5095287;27;45334;-85
2022/05/11 11:51:51;;;;;;;;;4.00;2.75;;;;;25.45;35.10;100716.03;5094780;27;45310;-85
2022/05/11 11:54:38;;;;;;;;;3.00;3.00;;;;;25.53;34.35;100702.31;5093415;27;45468;-83
2022/05/11 11:57:25;;;;;;;;;4.25;4.00;;;;;25.49;35.06;100701.81;5095193;27;46059;-84
2022/05/11 11:59:56;;;;;;;;;6.25;6.25;;;;;25.57;34.50;100716.41;5084468;27;45349;-86
2022/05/11 12:02:42;;;;;;;;;4.00;2.50;;;;;25.45;34.20;100691.50;5096164;27;45664;-83
2022/05/11 12:05:25;;;;;;;;;2.75;2.75;;;;;25.52;33.86;100706.09;5094859;27;45652;-83